Time;durP1;ratioP1;P1;durP2;ratioP2;P2;SDS_P1;SDS_P2;PMS_P1;PMS_P2;Temp;Humidity;BMP_temperature;BMP_pressure;BME280_temperature;BME280_humidity;BME280_pressure;Samples;Min_cycle;Max_cycle;Signal;HPM_P1;HPM_P2
2021/06/25 00:00:10;;;;;;;34.50;15.13;;;;;;;10.91;81.77;102170.88;4963610;28;20071;-68
2021/06/25 00:02:38;;;;;;;30.30;13.98;;;;;;;10.89;81.75;102170.03;4953921;28;20627;-69
2021/06/25 00:05:09;;;;;;;31.05;14.13;;;;;;;10.93;81.55;102170.88;4956475;28;20049;-70
2021/06/25 00:07:37;;;;;;;32.72;13.57;;;;;;;10.92;82.25;102164.66;4957292;28;20067;-69
2021/06/25 00:10:05;;;;;;;30.00;14.07;;;;;;;11.01;82.71;102171.66;4956739;28;20086;-69
2021/06/25 00:12:33;;;;;;;32.47;14.07;;;;;;;11.03;81.67;102167.19;4952190;28;20149;-70
2021/06/25 00:15:01;;;;;;;29.38;13.82;;;;;;;11.06;82.12;102175.16;4949252;28;20700;-72
2021/06/25 00:17:30;;;;;;;28.40;13.65;;;;;;;11.09;82.26;102166.22;4947428;28;20161;-72
2021/06/25 00:19:58;;;;;;;30.25;15.18;;;;;;;11.08;82.75;102161.78;4948883;28;20150;-72
2021/06/25 00:22:26;;;;;;;31.30;13.27;;;;;;;11.07;82.09;102155.56;4947990;28;20075;-71
2021/06/25 00:24:54;;;;;;;25.70;13.52;;;;;;;11.12;82.32;102150.16;4949530;28;20071;-71
2021/06/25 00:27:22;;;;;;;29.25;13.88;;;;;;;11.13;82.30;102150.13;4947474;28;21348;-71
2021/06/25 00:29:50;;;;;;;26.17;12.98;;;;;;;11.14;81.92;102141.22;4952583;28;20099;-71
2021/06/25 00:32:18;;;;;;;22.48;11.55;;;;;;;11.15;81.36;102145.66;4948509;28;20087;-70
2021/06/25 00:34:47;;;;;;;25.05;12.10;;;;;;;11.15;82.22;102142.09;4951700;28;20054;-71
2021/06/25 00:37:15;;;;;;;26.63;12.60;;;;;;;11.13;81.62;102142.09;4944689;28;20079;-71
2021/06/25 00:39:42;;;;;;;25.83;11.68;;;;;;;11.09;81.95;102136.84;4954035;28;20071;-71
2021/06/25 00:42:11;;;;;;;27.50;12.90;;;;;;;11.11;83.06;102135.91;4952009;28;20161;-73
2021/06/25 00:44:40;;;;;;;25.23;12.85;;;;;;;11.10;83.22;102135.94;4953638;28;21500;-71
2021/06/25 00:47:09;;;;;;;26.60;12.13;;;;;;;11.10;82.04;102127.91;4955319;28;20091;-71
2021/06/25 00:49:39;;;;;;;23.35;12.52;;;;;;;11.14;82.31;102127.84;4945399;28;20063;-71
2021/06/25 00:52:14;;;;;;;23.35;11.90;;;;;;;11.18;82.30;102126.03;4954041;28;20051;-70
2021/06/25 00:54:42;;;;;;;24.60;12.45;;;;;;;11.19;82.59;102126.00;4949232;28;20102;-71
2021/06/25 00:57:10;;;;;;;25.58;13.27;;;;;;;11.30;82.05;102124.97;4955644;28;20070;-72
2021/06/25 00:59:39;;;;;;;24.20;11.15;;;;;;;11.23;82.24;102116.16;4951673;28;20180;-71
2021/06/25 01:02:07;;;;;;;25.25;12.43;;;;;;;11.24;82.42;102122.38;4949564;28;20053;-70
2021/06/25 01:04:35;;;;;;;21.30;11.73;;;;;;;11.25;82.15;102118.81;4946730;28;20596;-72
2021/06/25 01:07:05;;;;;;;22.83;10.90;;;;;;;11.32;82.09;102112.47;4949481;28;20125;-72
2021/06/25 01:09:37;;;;;;;22.85;10.63;;;;;;;11.32;81.85;102107.13;4947703;28;20502;-72
2021/06/25 01:12:06;;;;;;;21.65;11.32;;;;;;;11.27;82.58;102108.97;4947905;28;20611;-71
2021/06/25 01:14:34;;;;;;;26.38;12.65;;;;;;;11.26;82.05;102112.56;4947311;28;20170;-71
2021/06/25 01:17:03;;;;;;;25.13;12.10;;;;;;;11.20;82.87;102108.19;4950485;28;20062;-72
2021/06/25 01:19:31;;;;;;;22.15;11.07;;;;;;;11.27;82.16;102103.63;4947857;28;20578;-71
2021/06/25 01:22:00;;;;;;;27.98;11.63;;;;;;;11.32;82.46;102104.44;4949701;28;20164;-72
2021/06/25 01:24:27;;;;;;;25.67;12.35;;;;;;;11.39;82.56;102098.09;4947703;28;20226;-72
2021/06/25 01:26:55;;;;;;;24.75;11.80;;;;;;;11.45;82.77;102105.16;4953009;28;20090;-72
2021/06/25 01:29:23;;;;;;;24.52;12.32;;;;;;;11.45;82.35;102098.00;4949175;28;20129;-72
2021/06/25 01:31:51;;;;;;;26.65;11.70;;;;;;;11.50;81.75;102100.63;4949571;28;20150;-72
2021/06/25 01:34:19;;;;;;;25.15;11.45;;;;;;;11.55;82.00;102099.63;4947296;28;20066;-71
2021/06/25 01:36:47;;;;;;;22.58;11.25;;;;;;;11.64;82.31;102111.09;4952454;28;20062;-72
2021/06/25 01:39:17;;;;;;;24.13;11.77;;;;;;;11.66;82.31;102106.59;4955134;28;20712;-72
2021/06/25 01:41:45;;;;;;;24.63;12.55;;;;;;;11.72;81.88;102095.81;4950728;28;20227;-72
2021/06/25 01:44:13;;;;;;;22.17;11.30;;;;;;;11.80;81.65;102092.97;4946665;28;20472;-72
2021/06/25 01:46:42;;;;;;;23.25;11.20;;;;;;;11.83;81.50;102091.13;4942989;28;20094;-72
2021/06/25 01:49:12;;;;;;;24.00;11.57;;;;;;;11.87;81.73;102083.97;4953020;28;20074;-71
2021/06/25 01:51:40;;;;;;;23.50;11.52;;;;;;;11.90;81.83;102082.13;4946030;28;20090;-72
2021/06/25 01:54:07;;;;;;;21.85;10.82;;;;;;;11.96;81.48;102083.81;4947833;28;20748;-73
2021/06/25 01:56:36;;;;;;;21.83;11.15;;;;;;;12.02;82.08;102083.72;4950289;28;20509;-73
2021/06/25 01:59:05;;;;;;;24.02;12.57;;;;;;;12.01;81.45;102076.59;4946809;28;20133;-71
2021/06/25 02:01:33;;;;;;;20.73;10.95;;;;;;;12.07;81.21;102076.50;4944560;28;20149;-72
2021/06/25 02:04:01;;;;;;;21.90;10.60;;;;;;;12.11;81.53;102069.28;4948468;28;20061;-72
2021/06/25 02:06:29;;;;;;;22.52;11.68;;;;;;;12.12;81.66;102065.69;4947776;28;20148;-71
2021/06/25 02:08:57;;;;;;;22.63;11.40;;;;;;;12.13;81.49;102067.47;4949177;28;20981;-71
2021/06/25 02:11:25;;;;;;;26.30;12.00;;;;;;;12.18;81.64;102067.38;4942424;28;20488;-73
2021/06/25 02:13:54;;;;;;;25.30;11.93;;;;;;;12.17;81.80;102068.28;4953069;28;20138;-71
2021/06/25 02:16:22;;;;;;;27.15;12.48;;;;;;;12.21;81.91;102068.19;4945603;28;20069;-72
2021/06/25 02:18:50;;;;;;;21.80;10.95;;;;;;;12.22;81.61;102066.41;4948372;28;20851;-71
2021/06/25 02:21:17;;;;;;;20.90;10.48;;;;;;;12.30;81.56;102069.81;4952112;28;20153;-74
2021/06/25 02:23:45;;;;;;;21.30;11.45;;;;;;;12.33;81.04;102067.97;4951509;28;20132;-72
2021/06/25 02:26:13;;;;;;;21.52;10.60;;;;;;;12.36;81.03;102066.13;4948156;28;20117;-72
2021/06/25 02:28:41;;;;;;;22.33;10.95;;;;;;;12.46;80.88;102062.34;4954123;28;20330;-71
2021/06/25 02:31:09;;;;;;;18.52;10.32;;;;;;;12.46;80.97;102068.59;4952614;28;20063;-71
2021/06/25 02:33:37;;;;;;;23.05;11.57;;;;;;;12.53;81.28;102061.28;4952993;28;20062;-71
2021/06/25 02:36:06;;;;;;;20.20;10.15;;;;;;;12.57;81.03;102063.00;4948943;28;20203;-72
2021/06/25 02:38:33;;;;;;;21.08;10.20;;;;;;;12.61;80.68;102058.47;4944460;28;20900;-70
2021/06/25 02:41:01;;;;;;;20.33;9.85;;;;;;;12.64;80.13;102053.06;4948055;28;20074;-72
2021/06/25 02:43:29;;;;;;;22.92;10.73;;;;;;;12.63;80.23;102057.53;4945761;28;20063;-72
2021/06/25 02:45:57;;;;;;;19.35;10.35;;;;;;;12.65;80.07;102053.03;4949185;28;20129;-71
2021/06/25 02:48:26;;;;;;;21.90;10.82;;;;;;;12.66;79.72;102049.41;4948276;28;20145;-72
2021/06/25 02:50:54;;;;;;;22.90;10.48;;;;;;;12.68;79.58;102044.94;4946334;28;20118;-72
2021/06/25 02:53:22;;;;;;;21.60;11.43;;;;;;;12.73;79.70;102041.25;4947659;28;20078;-73
2021/06/25 02:55:52;;;;;;;19.58;11.18;;;;;;;12.74;79.51;102032.31;4946048;28;20134;-73
2021/06/25 02:58:21;;;;;;;23.23;11.23;;;;;;;12.74;79.64;102037.69;4946999;28;20192;-73
2021/06/25 03:00:50;;;;;;;23.85;11.45;;;;;;;12.76;79.50;102031.38;4946071;28;20572;-72
2021/06/25 03:03:19;;;;;;;26.02;12.80;;;;;;;12.76;79.74;102035.84;4942749;28;20063;-72
2021/06/25 03:05:50;;;;;;;24.50;12.40;;;;;;;12.80;79.47;102026.81;4948931;28;20071;-73
2021/06/25 03:08:18;;;;;;;23.02;11.32;;;;;;;12.84;79.85;102028.53;4943161;28;20086;-73
2021/06/25 03:10:49;;;;;;;28.17;12.93;;;;;;;12.82;79.62;102027.66;4950394;28;20141;-73
2021/06/25 03:13:17;;;;;;;26.83;12.07;;;;;;;12.83;80.05;102024.94;4944787;28;20202;-73
2021/06/25 03:15:46;;;;;;;26.25;12.23;;;;;;;12.83;79.78;102027.63;4944138;28;20227;-73
2021/06/25 03:18:15;;;;;;;27.13;12.52;;;;;;;12.85;79.34;102024.91;4949066;28;20070;-73
2021/06/25 03:20:43;;;;;;;26.83;14.32;;;;;;;12.88;79.54;102017.69;4957873;28;20071;-73
2021/06/25 03:23:12;;;;;;;30.20;14.13;;;;;;;12.95;79.44;102020.22;4953831;28;20133;-73
2021/06/25 03:25:40;;;;;;;30.27;14.00;;;;;;;12.95;79.15;102013.06;4948505;28;20073;-72
2021/06/25 03:28:08;;;;;;;32.03;15.55;;;;;;;12.97;79.09;102018.38;4951545;28;20065;-70
2021/06/25 03:30:37;;;;;;;30.17;13.85;;;;;;;13.04;79.19;102014.66;4950465;28;20299;-70
2021/06/25 03:33:06;;;;;;;32.92;14.38;;;;;;;13.04;78.92;102009.28;4946820;28;20071;-70
2021/06/25 03:35:34;;;;;;;30.95;14.95;;;;;;;13.07;78.92;102004.72;4947037;28;20107;-69
2021/06/25 03:38:02;;;;;;;30.88;14.57;;;;;;;13.09;77.86;101993.97;4954190;28;20141;-69
2021/06/25 03:40:33;;;;;;;31.15;15.63;;;;;;;13.14;78.26;101996.56;4946446;28;20071;-70
2021/06/25 03:43:01;;;;;;;35.38;14.77;;;;;;;13.19;77.19;101989.28;4947458;28;20098;-69
2021/06/25 03:45:29;;;;;;;31.42;15.30;;;;;;;13.20;76.33;101991.94;4943757;28;20137;-70
2021/06/25 03:47:57;;;;;;;28.08;13.65;;;;;;;13.23;76.34;101999.03;4950230;28;20079;-69
2021/06/25 03:50:25;;;;;;;28.00;15.07;;;;;;;13.25;75.87;101987.34;4944877;28;20071;-69
2021/06/25 03:52:53;;;;;;;34.67;15.52;;;;;;;13.29;75.28;101989.94;4952023;28;20169;-69
2021/06/25 03:55:21;;;;;;;32.80;16.45;;;;;;;13.31;74.46;101991.66;4944804;28;20071;-70
2021/06/25 03:57:50;;;;;;;29.67;14.27;;;;;;;13.32;73.95;101988.09;4954471;28;20193;-69
2021/06/25 04:00:19;;;;;;;28.25;14.15;;;;;;;13.35;74.13;101985.34;4950370;28;21388;-69
2021/06/25 04:02:47;;;;;;;31.63;15.68;;;;;;;13.37;73.93;101979.94;4952306;28;20129;-70
2021/06/25 04:05:16;;;;;;;31.90;16.10;;;;;;;13.37;74.33;101974.59;4949005;28;21193;-70
2021/06/25 04:07:44;;;;;;;36.08;16.35;;;;;;;13.38;73.72;101965.59;4947168;28;20118;-70
2021/06/25 04:10:13;;;;;;;31.83;15.05;;;;;;;13.41;74.26;101971.75;4949486;28;20176;-70
2021/06/25 04:12:41;;;;;;;33.35;14.77;;;;;;;13.47;74.40;101965.38;4948866;28;20141;-70
2021/06/25 04:15:11;;;;;;;36.22;16.90;;;;;;;13.47;74.33;101962.69;4948188;28;20055;-69
2021/06/25 04:17:39;;;;;;;32.95;16.17;;;;;;;13.48;74.39;101966.25;4949884;28;20062;-70
2021/06/25 04:20:08;;;;;;;34.05;16.27;;;;;;;13.51;74.50;101961.69;4948901;28;20050;-70
2021/06/25 04:22:36;;;;;;;32.90;16.17;;;;;;;13.56;74.99;101965.13;4949188;28;20067;-69
2021/06/25 04:25:05;;;;;;;37.58;18.20;;;;;;;13.59;74.68;101957.00;4948665;28;20062;-70
2021/06/25 04:27:33;;;;;;;37.95;17.80;;;;;;;13.56;74.74;101962.44;4947922;28;20142;-70
2021/06/25 04:30:00;;;;;;;43.25;17.98;;;;;;;13.60;75.28;101965.91;4953713;28;20177;-70
2021/06/25 04:32:29;;;;;;;45.40;20.30;;;;;;;13.61;75.09;101962.34;4949152;28;20129;-70
2021/06/25 04:34:57;;;;;;;39.42;18.35;;;;;;;13.63;75.51;101957.81;4950749;28;20150;-69
2021/06/25 04:37:25;;;;;;;38.15;18.75;;;;;;;13.67;75.51;101948.72;4948372;28;20065;-70
2021/06/25 04:39:53;;;;;;;33.35;17.30;;;;;;;13.74;75.64;101954.81;4948307;28;20070;-71
2021/06/25 04:42:20;;;;;;;46.42;19.08;;;;;;;13.76;75.49;101955.69;4947329;28;20493;-70
2021/06/25 04:44:48;;;;;;;43.03;21.08;;;;;;;13.79;75.88;101951.09;4951803;28;20075;-71
2021/06/25 04:47:16;;;;;;;45.67;19.45;;;;;;;13.86;76.07;101948.22;4949130;28;20078;-70
2021/06/25 04:49:45;;;;;;;40.42;19.25;;;;;;;13.94;76.03;101951.56;4951645;28;20073;-70
2021/06/25 04:52:12;;;;;;;39.63;18.42;;;;;;;13.90;76.14;101952.59;4946533;28;20090;-70
2021/06/25 04:54:40;;;;;;;40.95;18.95;;;;;;;13.96;76.55;101947.94;4948163;28;20157;-71
2021/06/25 04:57:08;;;;;;;48.30;21.83;;;;;;;14.03;76.43;101951.34;4949619;28;20094;-70
2021/06/25 04:59:36;;;;;;;46.83;21.15;;;;;;;14.06;76.56;101953.03;4948029;28;20055;-70
2021/06/25 05:02:06;;;;;;;41.22;19.38;;;;;;;14.14;77.06;101937.59;4954896;28;20182;-70
2021/06/25 05:04:34;;;;;;;47.17;20.27;;;;;;;14.18;77.17;101950.88;4953049;28;20150;-70
2021/06/25 05:07:03;;;;;;;41.63;20.00;;;;;;;14.26;76.65;101942.59;4956579;28;20066;-70
2021/06/25 05:09:31;;;;;;;45.30;21.27;;;;;;;14.34;76.74;101937.88;4946735;28;20166;-69
2021/06/25 05:11:59;;;;;;;47.67;22.05;;;;;;;14.38;76.94;101936.84;4946998;28;20116;-70
2021/06/25 05:14:27;;;;;;;46.78;21.38;;;;;;;14.44;77.15;101927.75;4949552;28;20868;-69
2021/06/25 05:16:54;;;;;;;42.88;20.17;;;;;;;14.52;77.02;101928.38;4954126;28;20189;-70
2021/06/25 05:19:22;;;;;;;45.33;21.83;;;;;;;14.57;77.27;101922.84;4949607;28;20669;-70
2021/06/25 05:21:50;;;;;;;46.75;22.90;;;;;;;14.57;77.47;101921.06;4948910;28;20094;-69
2021/06/25 05:24:19;;;;;;;43.97;20.65;;;;;;;14.82;77.43;101931.03;4945630;28;23013;-70
2021/06/25 05:26:46;;;;;;;39.15;19.38;;;;;;;14.96;77.11;101925.19;4954009;28;20116;-70
2021/06/25 05:29:14;;;;;;;42.92;21.85;;;;;;;15.02;76.72;101922.31;4943625;28;20062;-70
2021/06/25 05:31:42;;;;;;;46.78;22.05;;;;;;;15.00;77.09;101925.97;4951966;28;20113;-69
2021/06/25 05:34:10;;;;;;;48.88;20.13;;;;;;;15.08;77.54;101931.97;4952320;28;20141;-69
2021/06/25 05:36:38;;;;;;;49.42;21.52;;;;;;;15.11;77.48;101921.13;4949180;28;20133;-69
2021/06/25 05:39:06;;;;;;;46.65;22.92;;;;;;;15.20;77.70;101920.78;4951639;28;20067;-70
2021/06/25 05:41:35;;;;;;;44.90;21.52;;;;;;;15.25;78.16;101926.03;4948925;28;20063;-72
2021/06/25 05:44:03;;;;;;;50.40;22.15;;;;;;;15.29;78.23;101920.50;4945622;28;20042;-72
2021/06/25 05:46:31;;;;;;;45.17;21.63;;;;;;;15.26;78.68;101923.28;4952438;28;20137;-73
2021/06/25 05:48:59;;;;;;;50.90;21.67;;;;;;;15.36;78.13;101926.53;4949393;28;20062;-73
2021/06/25 05:51:27;;;;;;;52.95;23.67;;;;;;;15.33;78.73;101918.59;4946890;28;20232;-72
2021/06/25 05:53:55;;;;;;;54.58;24.10;;;;;;;15.35;79.22;101915.84;4948592;28;20100;-74
2021/06/25 05:56:23;;;;;;;48.13;22.58;;;;;;;15.40;79.24;101911.19;4944290;28;20273;-73
2021/06/25 05:58:52;;;;;;;45.35;20.85;;;;;;;15.44;79.45;101905.66;4953634;28;20259;-72
2021/06/25 06:01:20;;;;;;;52.08;24.13;;;;;;;15.40;79.64;101916.56;4945646;28;20090;-71
2021/06/25 06:03:47;;;;;;;46.28;21.58;;;;;;;15.61;79.39;101909.53;4946300;28;21217;-74
2021/06/25 06:06:15;;;;;;;47.90;22.63;;;;;;;15.72;79.19;101923.47;4949896;28;20063;-71
2021/06/25 06:08:43;;;;;;;53.65;24.60;;;;;;;15.67;79.16;101923.63;4946199;28;20070;-73
2021/06/25 06:11:10;;;;;;;51.92;23.20;;;;;;;15.70;79.08;101925.34;4951934;28;20071;-74
2021/06/25 06:13:38;;;;;;;50.63;22.88;;;;;;;15.82;78.84;101929.44;4954657;28;20129;-72
2021/06/25 06:16:08;;;;;;;49.78;23.75;;;;;;;15.70;79.05;101930.72;4948043;28;20070;-72
2021/06/25 06:18:43;;;;;;;52.40;23.00;;;;;;;15.92;78.59;101927.25;4956295;28;20773;-72
2021/06/25 06:21:11;;;;;;;48.90;22.42;;;;;;;16.27;77.59;101920.53;4952767;28;20146;-71
2021/06/25 06:32:01;;;;;;;40.00;22.13;;;;;;;16.89;74.69;101921.69;4952086;28;20138;-71
2021/06/25 06:34:32;;;;;;;42.13;21.85;;;;;;;16.88;74.68;101928.03;4953512;28;20063;-71
2021/06/25 06:37:00;;;;;;;44.65;21.38;;;;;;;17.14;74.07;101924.22;4953883;28;20568;-71
2021/06/25 06:39:29;;;;;;;43.17;19.63;;;;;;;16.93;74.17;101928.69;4956891;28;20178;-72
2021/06/25 06:41:57;;;;;;;39.22;18.73;;;;;;;16.85;73.66;101927.28;4949207;28;20062;-72
2021/06/25 06:44:24;;;;;;;41.10;19.27;;;;;;;16.98;73.54;101928.53;4957901;28;20742;-73
2021/06/25 06:46:52;;;;;;;37.25;19.20;;;;;;;16.87;72.63;101922.69;4951291;28;20093;-71
2021/06/25 06:49:21;;;;;;;37.58;19.13;;;;;;;17.18;72.88;101925.00;4956408;28;20063;-73
2021/06/25 06:51:49;;;;;;;38.83;19.58;;;;;;;17.12;71.77;101925.25;4955302;28;20165;-70
2021/06/25 06:54:16;;;;;;;39.65;18.52;;;;;;;17.41;71.17;101925.81;4948666;28;20106;-70
2021/06/25 06:56:44;;;;;;;37.15;18.90;;;;;;;17.26;70.43;101922.81;4956843;28;20509;-69
2021/06/25 06:59:12;;;;;;;40.08;18.65;;;;;;;17.62;70.59;101911.38;4947979;28;20098;-69
2021/06/25 07:01:40;;;;;;;37.53;19.50;;;;;;;17.71;70.09;101916.34;4953298;28;20739;-71
2021/06/25 07:04:29;;;;;;;38.38;19.80;;;;;;;17.80;70.23;101906.97;4948784;28;20067;-69
2021/06/25 07:06:57;;;;;;;39.97;19.65;;;;;;;17.89;69.38;101906.59;4953248;28;20103;-69
2021/06/25 07:09:24;;;;;;;37.90;18.50;;;;;;;18.00;69.42;101908.78;4950774;28;20153;-69
2021/06/25 07:11:52;;;;;;;31.35;16.48;;;;;;;18.17;67.87;101894.50;4953667;28;20194;-70
2021/06/25 07:14:20;;;;;;;38.53;18.02;;;;;;;18.53;66.78;101903.63;4949591;28;20093;-68
2021/06/25 07:16:47;;;;;;;33.25;17.85;;;;;;;18.66;66.26;101899.31;4955612;28;20494;-69
2021/06/25 07:19:16;;;;;;;31.58;15.90;;;;;;;18.40;66.67;101906.00;4949167;28;20063;-70
2021/06/25 07:21:45;;;;;;;33.55;16.33;;;;;;;18.21;67.25;101906.88;4954852;28;20781;-70
2021/06/25 07:24:14;;;;;;;34.63;15.70;;;;;;;18.15;67.81;101909.91;4951060;28;20078;-69
2021/06/25 07:26:41;;;;;;;33.90;17.95;;;;;;;18.08;67.87;101911.09;4950159;28;20047;-71
2021/06/25 07:29:13;;;;;;;31.25;15.80;;;;;;;18.05;67.82;101908.56;4955329;28;20394;-71
2021/06/25 07:31:41;;;;;;;28.30;15.65;;;;;;;18.18;67.84;101911.56;4954214;28;20615;-70
2021/06/25 07:34:09;;;;;;;35.67;15.73;;;;;;;17.97;68.18;101913.44;4955315;28;20046;-70
2021/06/25 07:36:36;;;;;;;31.20;15.77;;;;;;;18.16;67.62;101917.03;4960518;28;20043;-69
2021/06/25 07:39:08;;;;;;;30.35;15.55;;;;;;;18.92;65.48;101913.44;4957035;28;20112;-69
2021/06/25 07:41:37;;;;;;;30.75;16.00;;;;;;;19.24;65.27;101917.22;4962035;28;20062;-70
2021/06/25 07:44:05;;;;;;;30.75;15.95;;;;;;;19.88;63.62;101912.94;4956218;28;20125;-70
2021/06/25 07:46:33;;;;;;;31.00;15.82;;;;;;;20.46;62.24;101908.81;4958590;28;23134;-70
2021/06/25 07:49:01;;;;;;;32.85;16.13;;;;;;;20.40;61.24;101900.16;4958771;28;20063;-70
2021/06/25 07:51:28;;;;;;;29.77;16.58;;;;;;;19.75;62.51;101909.13;4953016;28;20126;-72
2021/06/25 07:53:56;;;;;;;26.40;14.02;;;;;;;19.41;63.49;101905.50;4960689;28;20445;-71
2021/06/25 07:56:25;;;;;;;30.05;16.67;;;;;;;19.40;64.05;101906.44;4951728;28;20086;-71
2021/06/25 07:58:53;;;;;;;35.30;16.85;;;;;;;19.03;64.80;101911.94;4957401;28;20099;-72
2021/06/25 08:01:23;;;;;;;34.08;15.80;;;;;;;19.20;64.41;101902.94;4959602;28;20058;-72
2021/06/25 08:03:51;;;;;;;34.30;15.95;;;;;;;19.32;64.74;101901.44;4959334;28;20530;-72
2021/06/25 08:06:19;;;;;;;31.38;16.08;;;;;;;19.39;64.80;101902.88;4959054;28;20546;-71
2021/06/25 08:08:46;;;;;;;32.63;16.25;;;;;;;19.51;64.58;101900.47;4956051;28;20081;-71
2021/06/25 08:11:14;;;;;;;28.98;15.27;;;;;;;19.67;64.19;101900.53;4953988;28;20231;-71
2021/06/25 08:13:44;;;;;;;26.98;15.10;;;;;;;19.62;64.08;101906.19;4960523;28;20071;-71
2021/06/25 08:16:15;;;;;;;31.63;16.65;;;;;;;19.48;64.89;101901.50;4948130;28;20066;-71
2021/06/25 08:18:45;;;;;;;31.50;16.75;;;;;;;19.46;65.29;101903.44;4954098;28;20422;-72
2021/06/25 08:21:14;;;;;;;29.85;15.05;;;;;;;20.15;63.13;101899.69;4954251;28;20055;-75
2021/06/25 08:23:42;;;;;;;30.85;16.17;;;;;;;19.94;63.01;101901.78;4955275;28;20067;-75
2021/06/25 08:26:10;;;;;;;29.52;14.90;;;;;;;19.68;63.91;101899.56;4956976;28;20786;-75
2021/06/25 08:28:39;;;;;;;25.45;15.55;;;;;;;19.54;64.89;101897.59;4956507;28;20557;-75
2021/06/25 08:31:11;;;;;;;33.13;17.00;;;;;;;19.54;64.67;101901.16;4959955;28;20077;-74
2021/06/25 08:33:42;;;;;;;32.53;16.55;;;;;;;19.61;64.28;101896.31;4959835;28;20146;-76
2021/06/25 08:36:13;;;;;;;29.20;16.98;;;;;;;19.55;64.16;101896.66;4957326;28;20062;-75
2021/06/25 08:38:44;;;;;;;28.88;15.68;;;;;;;20.24;62.99;101892.03;4957806;28;20624;-75
2021/06/25 08:41:14;;;;;;;31.65;17.40;;;;;;;20.23;62.01;101893.88;4957510;28;20101;-74
2021/06/25 08:43:42;;;;;;;34.60;17.83;;;;;;;20.06;62.94;101902.06;4957550;28;20494;-75
2021/06/25 08:46:15;;;;;;;35.55;17.45;;;;;;;20.15;63.11;101886.16;4954821;28;20043;-76
2021/06/25 08:48:53;;;;;;;31.83;16.55;;;;;;;20.25;62.38;101897.34;4954055;28;20059;-75
2021/06/25 08:51:26;;;;;;;35.88;18.38;;;;;;;19.89;63.73;101892.16;4958392;28;20121;-75
2021/06/25 08:53:55;;;;;;;29.25;17.42;;;;;;;19.68;64.83;101899.56;4950423;28;20102;-71
2021/06/25 08:56:29;;;;;;;35.05;18.00;;;;;;;20.18;63.30;101885.13;4952828;28;20149;-71
2021/06/25 08:58:57;;;;;;;32.97;18.45;;;;;;;20.12;62.80;101883.63;4948447;28;20169;-70
2021/06/25 09:01:33;;;;;;;33.33;19.05;;;;;;;20.29;62.34;101884.50;4954998;28;20101;-70
2021/06/25 09:04:05;;;;;;;32.78;18.23;;;;;;;20.58;62.50;101880.13;4955773;28;20271;-70
2021/06/25 09:06:36;;;;;;;29.95;17.48;;;;;;;20.37;62.09;101881.38;4954547;28;20070;-70
2021/06/25 09:09:14;;;;;;;32.90;17.38;;;;;;;20.20;62.31;101883.19;4948252;28;20149;-70
2021/06/25 09:11:43;;;;;;;31.70;17.20;;;;;;;20.17;63.43;101874.38;4956795;28;20164;-72
2021/06/25 09:14:11;;;;;;;29.27;15.25;;;;;;;20.03;63.52;101870.59;4950417;28;20078;-71
2021/06/25 09:16:43;;;;;;;33.70;18.73;;;;;;;19.95;64.21;101872.84;4952437;28;20876;-71
2021/06/25 09:19:16;;;;;;;37.17;19.47;;;;;;;20.03;64.25;101870.59;4949413;28;20088;-71
2021/06/25 09:21:59;;;;;;;37.28;21.70;;;;;;;20.29;63.36;101865.53;4955367;28;20090;-71
2021/06/25 09:24:28;;;;;;;37.53;21.25;;;;;;;20.30;63.44;101872.72;4950780;28;20489;-70
2021/06/25 09:26:59;;;;;;;40.50;22.70;;;;;;;20.04;64.04;101877.78;4947261;28;20098;-70
2021/06/25 09:29:29;;;;;;;33.60;19.27;;;;;;;20.03;64.39;101880.56;4951538;28;20498;-71
2021/06/25 09:31:59;;;;;;;40.85;21.33;;;;;;;19.54;65.42;101881.34;4952796;28;20071;-70
2021/06/25 09:34:38;;;;;;;31.80;19.25;;;;;;;19.22;66.38;101887.53;4955468;28;20078;-69
2021/06/25 09:37:07;;;;;;;31.83;17.98;;;;;;;19.27;66.59;101892.66;4952265;28;20074;-72
2021/06/25 09:39:35;;;;;;;32.00;18.67;;;;;;;19.07;67.70;101893.72;4949454;28;20069;-70
2021/06/25 09:42:04;;;;;;;38.75;20.05;;;;;;;18.98;67.48;101895.03;4952277;28;20042;-70
2021/06/25 09:44:32;;;;;;;37.92;18.95;;;;;;;18.96;68.19;101901.50;4947604;28;20118;-71
2021/06/25 09:47:01;;;;;;;32.72;17.27;;;;;;;18.93;67.87;101893.53;4953869;28;20069;-70
2021/06/25 09:49:31;;;;;;;36.58;18.73;;;;;;;18.69;69.14;101893.78;4948276;28;20066;-71
2021/06/25 09:52:00;;;;;;;34.17;18.65;;;;;;;18.53;69.63;101900.91;4950761;28;20676;-71
2021/06/25 09:54:30;;;;;;;32.08;17.52;;;;;;;18.65;69.11;101889.47;4948614;28;20114;-72
2021/06/25 09:57:05;;;;;;;33.30;16.83;;;;;;;18.97;68.65;101896.00;4950697;28;20043;-71
2021/06/25 09:59:40;;;;;;;33.65;17.02;;;;;;;18.70;68.98;101884.72;4951795;28;20374;-70
2021/06/25 10:02:30;;;;;;;35.88;18.23;;;;;;;18.26;70.99;101895.88;4952015;28;20141;-70
2021/06/25 10:05:00;;;;;;;29.33;16.10;;;;;;;18.36;71.01;101891.78;4954360;28;20062;-70
2021/06/25 10:07:29;;;;;;;32.17;18.17;;;;;;;18.51;70.06;101892.88;4956478;28;20138;-70
2021/06/25 10:10:01;;;;;;;33.72;18.00;;;;;;;18.40;70.49;101893.38;4952496;28;20268;-70
2021/06/25 10:12:29;;;;;;;33.00;17.83;;;;;;;18.31;71.15;101890.25;4953930;28;20063;-70
2021/06/25 10:14:56;;;;;;;32.67;18.08;;;;;;;18.17;71.30;101897.19;4953769;28;20145;-70
2021/06/25 10:17:27;;;;;;;33.70;17.95;;;;;;;18.15;71.36;101900.91;4946895;28;20153;-69
2021/06/25 10:20:06;;;;;;;34.90;18.95;;;;;;;18.00;72.07;101900.69;4953905;28;20379;-70
2021/06/25 10:22:35;;;;;;;25.85;16.10;;;;;;;18.12;71.19;101904.63;4947906;28;20417;-72
2021/06/25 10:25:05;;;;;;;31.55;18.13;;;;;;;18.14;71.13;101900.03;4948657;28;20051;-70
2021/06/25 10:27:34;;;;;;;31.00;19.20;;;;;;;17.98;71.30;101912.47;4948274;28;20063;-69
2021/06/25 10:30:04;;;;;;;39.45;23.13;;;;;;;18.04;71.14;101906.81;4952484;28;20184;-70
2021/06/25 10:32:32;;;;;;;40.35;23.58;;;;;;;17.94;71.52;101906.34;4947437;28;20157;-70
2021/06/25 10:35:02;;;;;;;47.63;25.45;;;;;;;17.89;71.64;101909.28;4951016;28;20153;-74
2021/06/25 10:37:30;;;;;;;47.70;27.45;;;;;;;17.79;72.00;101912.44;4948612;28;20055;-74
2021/06/25 10:39:58;;;;;;;54.58;29.13;;;;;;;17.66;72.76;101909.41;4954114;28;20054;-74
2021/06/25 10:42:41;;;;;;;55.88;29.13;;;;;;;17.59;72.63;101905.22;4953142;28;20464;-73
2021/06/25 10:45:10;;;;;;;58.63;32.63;;;;;;;17.57;73.01;101916.09;4956110;28;20129;-72
2021/06/25 10:47:52;;;;;;;65.72;35.45;;;;;;;17.41;73.60;101915.03;4952752;28;20067;-73
2021/06/25 10:50:26;;;;;;;64.60;35.80;;;;;;;17.49;73.50;101918.25;4953439;28;20063;-75
2021/06/25 10:53:22;;;;;;;70.35;36.05;;;;;;;17.63;73.02;101910.41;4954747;28;20130;-75
2021/06/25 10:56:04;;;;;;;69.53;34.92;;;;;;;17.55;73.81;101913.47;4953773;28;20075;-73
2021/06/25 10:58:34;;;;;;;73.15;37.20;;;;;;;17.70;73.46;101911.03;4951036;28;20043;-74
2021/06/25 11:01:05;;;;;;;69.00;35.40;;;;;;;17.60;73.71;101907.84;4954044;28;20273;-74
2021/06/25 11:03:41;;;;;;;74.05;37.60;;;;;;;17.61;73.90;101914.16;4952677;28;20067;-75
2021/06/25 11:06:55;;;;;;;66.30;37.00;;;;;;;17.52;73.59;101913.59;4960127;28;20489;-75
2021/06/25 11:09:24;;;;;;;68.63;35.20;;;;;;;17.61;73.39;101906.06;4952576;28;20149;-74
2021/06/25 11:12:20;;;;;;;59.65;32.75;;;;;;;17.65;73.09;101905.81;4956887;28;20074;-74
2021/06/25 11:14:49;;;;;;;54.38;29.88;;;;;;;17.55;73.55;101908.06;4953519;28;20067;-73
2021/06/25 11:17:46;;;;;;;55.15;29.40;;;;;;;17.79;73.19;101915.13;4958266;28;20583;-73
2021/06/25 11:20:20;;;;;;;47.75;27.20;;;;;;;18.00;72.37;101906.09;4959834;28;20042;-74
2021/06/25 11:22:59;;;;;;;48.08;27.77;;;;;;;18.10;71.88;101902.00;4957159;28;20094;-74
2021/06/25 11:25:35;;;;;;;53.10;27.58;;;;;;;18.34;71.13;101903.59;4956685;28;20490;-74
2021/06/25 11:28:12;;;;;;;43.90;26.63;;;;;;;18.29;70.46;101907.41;4953964;28;20051;-74